sensor_id;sensor_type;location;lat;lon;timestamp;P1;durP1;ratioP1;P2;durP2;ratioP2
23060;SDS011;11698;47.690;9.132;2023-04-15T00:01:21;1.00;;;0.73;;
23060;SDS011;11698;47.690;9.132;2023-04-15T00:03:49;3.33;;;0.90;;
23060;SDS011;11698;47.690;9.132;2023-04-15T00:06:16;2.40;;;1.00;;
23060;SDS011;11698;47.690;9.132;2023-04-15T00:08:42;1.75;;;0.80;;
23060;SDS011;11698;47.690;9.132;2023-04-15T00:11:08;2.17;;;0.80;;
23060;SDS011;11698;47.690;9.132;2023-04-15T00:13:34;5.50;;;1.10;;
23060;SDS011;11698;47.690;9.132;2023-04-15T00:16:00;2.50;;;1.30;;
23060;SDS011;11698;47.690;9.132;2023-04-15T00:18:26;4.97;;;1.00;;
23060;SDS011;11698;47.690;9.132;2023-04-15T00:20:53;1.63;;;0.90;;
23060;SDS011;11698;47.690;9.132;2023-04-15T00:23:19;2.78;;;0.90;;
23060;SDS011;11698;47.690;9.132;2023-04-15T00:25:46;3.47;;;1.10;;
23060;SDS011;11698;47.690;9.132;2023-04-15T00:28:12;2.73;;;1.03;;
23060;SDS011;11698;47.690;9.132;2023-04-15T00:30:38;2.25;;;0.95;;
23060;SDS011;11698;47.690;9.132;2023-04-15T00:33:04;2.28;;;1.00;;
23060;SDS011;11698;47.690;9.132;2023-04-15T00:35:30;1.30;;;0.80;;
23060;SDS011;11698;47.690;9.132;2023-04-15T00:37:57;3.30;;;1.10;;
23060;SDS011;11698;47.690;9.132;2023-04-15T00:40:23;2.35;;;1.05;;
23060;SDS011;11698;47.690;9.132;2023-04-15T00:42:50;2.58;;;1.20;;
23060;SDS011;11698;47.690;9.132;2023-04-15T00:45:16;1.92;;;1.00;;
23060;SDS011;11698;47.690;9.132;2023-04-15T00:47:43;1.17;;;0.82;;
23060;SDS011;11698;47.690;9.132;2023-04-15T00:50:09;3.10;;;1.20;;
23060;SDS011;11698;47.690;9.132;2023-04-15T00:52:36;1.83;;;0.90;;
23060;SDS011;11698;47.690;9.132;2023-04-15T00:55:03;2.30;;;1.10;;
23060;SDS011;11698;47.690;9.132;2023-04-15T00:57:29;2.58;;;1.08;;
23060;SDS011;11698;47.690;9.132;2023-04-15T00:59:55;1.52;;;1.13;;
23060;SDS011;11698;47.690;9.132;2023-04-15T01:02:22;1.42;;;1.00;;
23060;SDS011;11698;47.690;9.132;2023-04-15T01:04:48;2.50;;;1.13;;
23060;SDS011;11698;47.690;9.132;2023-04-15T01:07:14;3.75;;;1.48;;
23060;SDS011;11698;47.690;9.132;2023-04-15T01:09:41;1.70;;;0.93;;
23060;SDS011;11698;47.690;9.132;2023-04-15T01:12:08;2.03;;;1.08;;
23060;SDS011;11698;47.690;9.132;2023-04-15T01:14:35;2.83;;;1.08;;
23060;SDS011;11698;47.690;9.132;2023-04-15T01:17:01;1.48;;;1.10;;
23060;SDS011;11698;47.690;9.132;2023-04-15T01:19:27;2.13;;;1.17;;
23060;SDS011;11698;47.690;9.132;2023-04-15T01:21:53;2.97;;;1.20;;
23060;SDS011;11698;47.690;9.132;2023-04-15T01:24:20;1.33;;;0.83;;
23060;SDS011;11698;47.690;9.132;2023-04-15T01:26:46;2.63;;;0.95;;
23060;SDS011;11698;47.690;9.132;2023-04-15T01:29:13;1.33;;;1.00;;
23060;SDS011;11698;47.690;9.132;2023-04-15T01:31:39;2.15;;;1.08;;
23060;SDS011;11698;47.690;9.132;2023-04-15T01:34:05;2.72;;;1.02;;
23060;SDS011;11698;47.690;9.132;2023-04-15T01:36:31;2.03;;;1.10;;
23060;SDS011;11698;47.690;9.132;2023-04-15T01:38:58;2.10;;;1.10;;
23060;SDS011;11698;47.690;9.132;2023-04-15T01:41:25;3.10;;;1.35;;
23060;SDS011;11698;47.690;9.132;2023-04-15T01:43:51;2.72;;;1.17;;
23060;SDS011;11698;47.690;9.132;2023-04-15T01:46:17;2.57;;;1.10;;
23060;SDS011;11698;47.690;9.132;2023-04-15T01:48:44;2.78;;;1.23;;
23060;SDS011;11698;47.690;9.132;2023-04-15T01:51:10;2.42;;;1.30;;
23060;SDS011;11698;47.690;9.132;2023-04-15T01:53:36;1.60;;;1.05;;
23060;SDS011;11698;47.690;9.132;2023-04-15T01:56:03;2.78;;;1.20;;
23060;SDS011;11698;47.690;9.132;2023-04-15T01:58:29;3.37;;;1.30;;
23060;SDS011;11698;47.690;9.132;2023-04-15T02:00:55;1.88;;;1.20;;
23060;SDS011;11698;47.690;9.132;2023-04-15T02:03:21;1.63;;;1.02;;
23060;SDS011;11698;47.690;9.132;2023-04-15T02:05:47;4.35;;;1.15;;
23060;SDS011;11698;47.690;9.132;2023-04-15T02:08:14;2.55;;;1.00;;
23060;SDS011;11698;47.690;9.132;2023-04-15T02:10:41;1.60;;;1.13;;
23060;SDS011;11698;47.690;9.132;2023-04-15T02:13:07;2.60;;;1.20;;
23060;SDS011;11698;47.690;9.132;2023-04-15T02:15:33;3.35;;;1.50;;
23060;SDS011;11698;47.690;9.132;2023-04-15T02:17:59;4.30;;;1.30;;
23060;SDS011;11698;47.690;9.132;2023-04-15T02:20:26;3.58;;;1.45;;
23060;SDS011;11698;47.690;9.132;2023-04-15T02:22:52;2.42;;;1.35;;
23060;SDS011;11698;47.690;9.132;2023-04-15T02:25:18;4.03;;;1.57;;
23060;SDS011;11698;47.690;9.132;2023-04-15T02:27:44;3.22;;;1.52;;
23060;SDS011;11698;47.690;9.132;2023-04-15T02:30:10;3.88;;;1.48;;
23060;SDS011;11698;47.690;9.132;2023-04-15T02:32:36;3.10;;;1.45;;
23060;SDS011;11698;47.690;9.132;2023-04-15T02:37:54;2.95;;;1.48;;
23060;SDS011;11698;47.690;9.132;2023-04-15T02:40:20;2.63;;;1.10;;
23060;SDS011;11698;47.690;9.132;2023-04-15T02:42:46;2.72;;;1.48;;
23060;SDS011;11698;47.690;9.132;2023-04-15T02:45:12;2.90;;;1.33;;
23060;SDS011;11698;47.690;9.132;2023-04-15T02:47:39;4.28;;;1.40;;
23060;SDS011;11698;47.690;9.132;2023-04-15T02:50:09;1.77;;;1.20;;
23060;SDS011;11698;47.690;9.132;2023-04-15T02:52:36;2.60;;;1.10;;
23060;SDS011;11698;47.690;9.132;2023-04-15T02:55:03;5.82;;;1.50;;
23060;SDS011;11698;47.690;9.132;2023-04-15T02:57:29;3.35;;;1.40;;
23060;SDS011;11698;47.690;9.132;2023-04-15T02:59:55;4.22;;;1.35;;
23060;SDS011;11698;47.690;9.132;2023-04-15T03:02:21;3.30;;;1.17;;
23060;SDS011;11698;47.690;9.132;2023-04-15T03:04:47;2.15;;;1.20;;
23060;SDS011;11698;47.690;9.132;2023-04-15T03:07:13;2.58;;;1.17;;
23060;SDS011;11698;47.690;9.132;2023-04-15T03:09:39;2.33;;;1.27;;
23060;SDS011;11698;47.690;9.132;2023-04-15T03:12:06;2.70;;;1.20;;
23060;SDS011;11698;47.690;9.132;2023-04-15T03:14:32;3.10;;;1.20;;
23060;SDS011;11698;47.690;9.132;2023-04-15T03:16:58;3.67;;;1.00;;
23060;SDS011;11698;47.690;9.132;2023-04-15T03:19:24;2.58;;;1.50;;
23060;SDS011;11698;47.690;9.132;2023-04-15T03:21:50;2.42;;;1.60;;
23060;SDS011;11698;47.690;9.132;2023-04-15T03:24:16;1.63;;;1.20;;
23060;SDS011;11698;47.690;9.132;2023-04-15T03:26:42;3.30;;;1.40;;
23060;SDS011;11698;47.690;9.132;2023-04-15T03:29:08;2.42;;;1.40;;
23060;SDS011;11698;47.690;9.132;2023-04-15T03:31:34;4.20;;;1.60;;
23060;SDS011;11698;47.690;9.132;2023-04-15T03:34:00;5.78;;;2.42;;
23060;SDS011;11698;47.690;9.132;2023-04-15T03:36:28;9.07;;;3.50;;
23060;SDS011;11698;47.690;9.132;2023-04-15T03:38:56;8.20;;;2.80;;
23060;SDS011;11698;47.690;9.132;2023-04-15T03:41:22;7.50;;;2.60;;
23060;SDS011;11698;47.690;9.132;2023-04-15T03:43:48;7.03;;;2.70;;
23060;SDS011;11698;47.690;9.132;2023-04-15T03:46:17;13.52;;;4.80;;
23060;SDS011;11698;47.690;9.132;2023-04-15T03:48:43;17.52;;;5.55;;
23060;SDS011;11698;47.690;9.132;2023-04-15T03:51:09;35.30;;;11.02;;
23060;SDS011;11698;47.690;9.132;2023-04-15T03:53:35;25.52;;;7.20;;
23060;SDS011;11698;47.690;9.132;2023-04-15T03:56:01;16.58;;;6.03;;
23060;SDS011;11698;47.690;9.132;2023-04-15T03:58:27;10.45;;;3.85;;
23060;SDS011;11698;47.690;9.132;2023-04-15T04:00:53;8.40;;;3.35;;
23060;SDS011;11698;47.690;9.132;2023-04-15T04:03:19;9.88;;;3.47;;
23060;SDS011;11698;47.690;9.132;2023-04-15T04:05:45;5.47;;;2.45;;
23060;SDS011;11698;47.690;9.132;2023-04-15T04:08:11;6.30;;;2.50;;
23060;SDS011;11698;47.690;9.132;2023-04-15T04:10:38;7.70;;;2.20;;
23060;SDS011;11698;47.690;9.132;2023-04-15T04:13:04;11.95;;;5.05;;
23060;SDS011;11698;47.690;9.132;2023-04-15T04:15:30;13.50;;;4.60;;
23060;SDS011;11698;47.690;9.132;2023-04-15T04:17:56;8.23;;;3.92;;
23060;SDS011;11698;47.690;9.132;2023-04-15T04:20:22;5.20;;;2.30;;
23060;SDS011;11698;47.690;9.132;2023-04-15T04:22:48;3.72;;;1.95;;
23060;SDS011;11698;47.690;9.132;2023-04-15T04:25:14;8.30;;;4.38;;
23060;SDS011;11698;47.690;9.132;2023-04-15T04:27:40;9.30;;;2.80;;
23060;SDS011;11698;47.690;9.132;2023-04-15T04:30:07;5.68;;;2.85;;
23060;SDS011;11698;47.690;9.132;2023-04-15T04:32:33;9.40;;;3.40;;
23060;SDS011;11698;47.690;9.132;2023-04-15T04:34:59;9.80;;;3.85;;
23060;SDS011;11698;47.690;9.132;2023-04-15T04:37:25;7.88;;;3.60;;
23060;SDS011;11698;47.690;9.132;2023-04-15T04:39:51;7.55;;;3.47;;
23060;SDS011;11698;47.690;9.132;2023-04-15T04:42:17;4.57;;;2.53;;
23060;SDS011;11698;47.690;9.132;2023-04-15T04:44:43;3.90;;;2.33;;
23060;SDS011;11698;47.690;9.132;2023-04-15T04:47:09;2.53;;;1.35;;
23060;SDS011;11698;47.690;9.132;2023-04-15T04:49:35;3.45;;;2.15;;
23060;SDS011;11698;47.690;9.132;2023-04-15T04:52:01;2.53;;;1.70;;
23060;SDS011;11698;47.690;9.132;2023-04-15T04:54:27;5.07;;;1.90;;
23060;SDS011;11698;47.690;9.132;2023-04-15T04:56:55;2.75;;;1.73;;
23060;SDS011;11698;47.690;9.132;2023-04-15T04:59:23;3.30;;;1.73;;
23060;SDS011;11698;47.690;9.132;2023-04-15T05:01:49;4.28;;;2.08;;
23060;SDS011;11698;47.690;9.132;2023-04-15T05:04:16;2.88;;;1.60;;
23060;SDS011;11698;47.690;9.132;2023-04-15T05:06:42;3.90;;;1.80;;
23060;SDS011;11698;47.690;9.132;2023-04-15T05:09:08;4.28;;;1.80;;
23060;SDS011;11698;47.690;9.132;2023-04-15T05:11:34;3.88;;;1.85;;
23060;SDS011;11698;47.690;9.132;2023-04-15T05:14:00;3.17;;;1.92;;
23060;SDS011;11698;47.690;9.132;2023-04-15T05:16:26;2.72;;;1.58;;
23060;SDS011;11698;47.690;9.132;2023-04-15T05:18:52;6.20;;;1.90;;
23060;SDS011;11698;47.690;9.132;2023-04-15T05:21:19;3.97;;;1.77;;
23060;SDS011;11698;47.690;9.132;2023-04-15T05:23:45;3.00;;;1.60;;
23060;SDS011;11698;47.690;9.132;2023-04-15T05:26:11;4.00;;;1.80;;
23060;SDS011;11698;47.690;9.132;2023-04-15T05:28:37;4.18;;;2.03;;
23060;SDS011;11698;47.690;9.132;2023-04-15T05:31:03;4.00;;;2.42;;
23060;SDS011;11698;47.690;9.132;2023-04-15T05:33:29;3.50;;;1.85;;
23060;SDS011;11698;47.690;9.132;2023-04-15T05:35:55;3.17;;;2.00;;
23060;SDS011;11698;47.690;9.132;2023-04-15T05:38:21;4.10;;;1.85;;
23060;SDS011;11698;47.690;9.132;2023-04-15T05:40:47;4.25;;;1.88;;
23060;SDS011;11698;47.690;9.132;2023-04-15T05:43:13;2.45;;;1.70;;
23060;SDS011;11698;47.690;9.132;2023-04-15T05:45:39;2.67;;;2.00;;
23060;SDS011;11698;47.690;9.132;2023-04-15T05:48:05;4.33;;;2.07;;
23060;SDS011;11698;47.690;9.132;2023-04-15T05:50:32;3.17;;;2.00;;
23060;SDS011;11698;47.690;9.132;2023-04-15T05:53:04;3.13;;;1.83;;
23060;SDS011;11698;47.690;9.132;2023-04-15T05:55:30;3.03;;;1.60;;
23060;SDS011;11698;47.690;9.132;2023-04-15T05:57:56;5.50;;;2.10;;
23060;SDS011;11698;47.690;9.132;2023-04-15T06:00:22;2.85;;;1.63;;
23060;SDS011;11698;47.690;9.132;2023-04-15T06:02:51;3.55;;;1.80;;
23060;SDS011;11698;47.690;9.132;2023-04-15T06:05:17;4.13;;;1.95;;
23060;SDS011;11698;47.690;9.132;2023-04-15T06:07:43;3.33;;;1.77;;
23060;SDS011;11698;47.690;9.132;2023-04-15T06:10:10;2.83;;;1.70;;
23060;SDS011;11698;47.690;9.132;2023-04-15T06:12:36;4.70;;;2.17;;
23060;SDS011;11698;47.690;9.132;2023-04-15T06:15:03;3.37;;;1.73;;
23060;SDS011;11698;47.690;9.132;2023-04-15T06:17:30;3.15;;;2.00;;
23060;SDS011;11698;47.690;9.132;2023-04-15T06:19:56;4.30;;;2.00;;
23060;SDS011;11698;47.690;9.132;2023-04-15T06:22:22;4.38;;;1.80;;
23060;SDS011;11698;47.690;9.132;2023-04-15T06:24:49;4.57;;;1.80;;
23060;SDS011;11698;47.690;9.132;2023-04-15T06:27:15;3.67;;;2.30;;
23060;SDS011;11698;47.690;9.132;2023-04-15T06:29:41;4.28;;;1.60;;
23060;SDS011;11698;47.690;9.132;2023-04-15T06:32:07;3.05;;;1.90;;
23060;SDS011;11698;47.690;9.132;2023-04-15T06:34:33;2.85;;;2.00;;
23060;SDS011;11698;47.690;9.132;2023-04-15T06:36:59;4.05;;;2.13;;
23060;SDS011;11698;47.690;9.132;2023-04-15T06:39:25;3.88;;;2.20;;
23060;SDS011;11698;47.690;9.132;2023-04-15T06:41:51;4.43;;;2.07;;
23060;SDS011;11698;47.690;9.132;2023-04-15T06:44:17;6.07;;;2.10;;
23060;SDS011;11698;47.690;9.132;2023-04-15T06:46:44;5.32;;;2.05;;
23060;SDS011;11698;47.690;9.132;2023-04-15T06:49:10;4.50;;;2.20;;
23060;SDS011;11698;47.690;9.132;2023-04-15T06:51:36;3.42;;;1.90;;
23060;SDS011;11698;47.690;9.132;2023-04-15T06:54:02;4.90;;;2.10;;
23060;SDS011;11698;47.690;9.132;2023-04-15T06:56:30;3.08;;;2.15;;
23060;SDS011;11698;47.690;9.132;2023-04-15T06:58:56;4.70;;;2.25;;
23060;SDS011;11698;47.690;9.132;2023-04-15T07:01:22;4.20;;;2.13;;
23060;SDS011;11698;47.690;9.132;2023-04-15T07:03:48;4.70;;;2.03;;
23060;SDS011;11698;47.690;9.132;2023-04-15T07:06:14;5.93;;;2.70;;
23060;SDS011;11698;47.690;9.132;2023-04-15T07:08:40;4.50;;;2.42;;
23060;SDS011;11698;47.690;9.132;2023-04-15T07:11:06;4.07;;;2.30;;
23060;SDS011;11698;47.690;9.132;2023-04-15T07:13:33;6.82;;;2.20;;
23060;SDS011;11698;47.690;9.132;2023-04-15T07:15:59;4.60;;;2.47;;
23060;SDS011;11698;47.690;9.132;2023-04-15T07:18:25;5.78;;;2.65;;
23060;SDS011;11698;47.690;9.132;2023-04-15T07:20:51;3.03;;;2.28;;
23060;SDS011;11698;47.690;9.132;2023-04-15T07:23:17;2.60;;;2.13;;
23060;SDS011;11698;47.690;9.132;2023-04-15T07:25:43;3.78;;;2.10;;
23060;SDS011;11698;47.690;9.132;2023-04-15T07:28:09;4.32;;;2.08;;
23060;SDS011;11698;47.690;9.132;2023-04-15T07:30:35;3.80;;;1.90;;
23060;SDS011;11698;47.690;9.132;2023-04-15T07:33:01;4.90;;;1.98;;
23060;SDS011;11698;47.690;9.132;2023-04-15T07:35:27;3.40;;;2.10;;
23060;SDS011;11698;47.690;9.132;2023-04-15T07:37:53;4.43;;;2.38;;
23060;SDS011;11698;47.690;9.132;2023-04-15T07:40:20;5.68;;;2.20;;
23060;SDS011;11698;47.690;9.132;2023-04-15T07:42:46;4.13;;;2.33;;
23060;SDS011;11698;47.690;9.132;2023-04-15T07:45:13;5.97;;;2.78;;
23060;SDS011;11698;47.690;9.132;2023-04-15T07:47:39;3.58;;;2.40;;
23060;SDS011;11698;47.690;9.132;2023-04-15T07:50:06;3.15;;;2.03;;
23060;SDS011;11698;47.690;9.132;2023-04-15T07:52:33;4.07;;;2.27;;
23060;SDS011;11698;47.690;9.132;2023-04-15T07:55:03;3.57;;;2.20;;
23060;SDS011;11698;47.690;9.132;2023-04-15T07:57:30;4.70;;;2.20;;
23060;SDS011;11698;47.690;9.132;2023-04-15T07:59:56;4.63;;;2.10;;
23060;SDS011;11698;47.690;9.132;2023-04-15T08:02:22;5.53;;;2.10;;
23060;SDS011;11698;47.690;9.132;2023-04-15T08:04:48;2.60;;;2.10;;
23060;SDS011;11698;47.690;9.132;2023-04-15T08:07:14;3.85;;;2.00;;
23060;SDS011;11698;47.690;9.132;2023-04-15T08:09:40;3.75;;;2.00;;
23060;SDS011;11698;47.690;9.132;2023-04-15T08:12:06;4.53;;;2.10;;
23060;SDS011;11698;47.690;9.132;2023-04-15T08:14:33;3.42;;;1.70;;
23060;SDS011;11698;47.690;9.132;2023-04-15T08:16:59;4.57;;;1.55;;
23060;SDS011;11698;47.690;9.132;2023-04-15T08:19:25;3.85;;;1.58;;
23060;SDS011;11698;47.690;9.132;2023-04-15T08:21:51;2.47;;;1.40;;
23060;SDS011;11698;47.690;9.132;2023-04-15T08:24:17;1.75;;;1.30;;
23060;SDS011;11698;47.690;9.132;2023-04-15T08:26:43;3.97;;;1.50;;
23060;SDS011;11698;47.690;9.132;2023-04-15T08:29:11;3.15;;;1.42;;
23060;SDS011;11698;47.690;9.132;2023-04-15T08:31:37;2.65;;;1.45;;
23060;SDS011;11698;47.690;9.132;2023-04-15T08:34:03;2.75;;;1.30;;
23060;SDS011;11698;47.690;9.132;2023-04-15T08:36:29;2.60;;;1.65;;
23060;SDS011;11698;47.690;9.132;2023-04-15T08:38:56;1.80;;;1.30;;
23060;SDS011;11698;47.690;9.132;2023-04-15T08:41:23;3.08;;;1.60;;
23060;SDS011;11698;47.690;9.132;2023-04-15T08:43:53;4.07;;;1.63;;
23060;SDS011;11698;47.690;9.132;2023-04-15T08:46:21;3.77;;;1.60;;
23060;SDS011;11698;47.690;9.132;2023-04-15T08:48:48;3.20;;;1.60;;
23060;SDS011;11698;47.690;9.132;2023-04-15T08:51:14;2.22;;;1.48;;
23060;SDS011;11698;47.690;9.132;2023-04-15T08:53:41;3.05;;;1.65;;
23060;SDS011;11698;47.690;9.132;2023-04-15T08:56:08;2.72;;;1.48;;
23060;SDS011;11698;47.690;9.132;2023-04-15T08:58:37;3.13;;;1.42;;
23060;SDS011;11698;47.690;9.132;2023-04-15T09:01:03;2.00;;;1.50;;
23060;SDS011;11698;47.690;9.132;2023-04-15T09:03:29;3.08;;;1.48;;
23060;SDS011;11698;47.690;9.132;2023-04-15T09:05:55;3.10;;;1.65;;
23060;SDS011;11698;47.690;9.132;2023-04-15T09:08:22;2.50;;;1.50;;
23060;SDS011;11698;47.690;9.132;2023-04-15T09:10:48;1.67;;;1.40;;
23060;SDS011;11698;47.690;9.132;2023-04-15T09:13:15;3.65;;;1.67;;
23060;SDS011;11698;47.690;9.132;2023-04-15T09:15:41;2.55;;;1.73;;
23060;SDS011;11698;47.690;9.132;2023-04-15T09:18:08;2.83;;;1.60;;
23060;SDS011;11698;47.690;9.132;2023-04-15T09:20:39;2.97;;;1.40;;
23060;SDS011;11698;47.690;9.132;2023-04-15T09:23:13;2.97;;;1.40;;
23060;SDS011;11698;47.690;9.132;2023-04-15T09:25:40;2.05;;;1.27;;
23060;SDS011;11698;47.690;9.132;2023-04-15T09:28:06;3.35;;;1.50;;
23060;SDS011;11698;47.690;9.132;2023-04-15T09:30:33;3.78;;;1.23;;
23060;SDS011;11698;47.690;9.132;2023-04-15T09:33:00;3.03;;;1.25;;
23060;SDS011;11698;47.690;9.132;2023-04-15T09:35:26;3.35;;;1.40;;
23060;SDS011;11698;47.690;9.132;2023-04-15T09:37:53;2.78;;;1.38;;
23060;SDS011;11698;47.690;9.132;2023-04-15T09:40:33;2.45;;;1.10;;
23060;SDS011;11698;47.690;9.132;2023-04-15T09:43:00;3.08;;;1.20;;
23060;SDS011;11698;47.690;9.132;2023-04-15T09:45:26;1.85;;;1.30;;
23060;SDS011;11698;47.690;9.132;2023-04-15T09:47:53;2.25;;;1.23;;
23060;SDS011;11698;47.690;9.132;2023-04-15T09:50:19;2.38;;;1.45;;
23060;SDS011;11698;47.690;9.132;2023-04-15T09:52:46;1.55;;;1.27;;
23060;SDS011;11698;47.690;9.132;2023-04-15T09:55:13;3.33;;;1.15;;
23060;SDS011;11698;47.690;9.132;2023-04-15T09:57:40;2.88;;;1.27;;
23060;SDS011;11698;47.690;9.132;2023-04-15T10:00:07;2.23;;;1.30;;
23060;SDS011;11698;47.690;9.132;2023-04-15T10:02:35;2.08;;;1.27;;
23060;SDS011;11698;47.690;9.132;2023-04-15T10:05:01;2.25;;;1.20;;
23060;SDS011;11698;47.690;9.132;2023-04-15T10:07:28;3.58;;;1.50;;
23060;SDS011;11698;47.690;9.132;2023-04-15T10:09:54;3.63;;;1.63;;
23060;SDS011;11698;47.690;9.132;2023-04-15T10:12:21;2.88;;;1.40;;
23060;SDS011;11698;47.690;9.132;2023-04-15T10:14:47;1.95;;;1.20;;
23060;SDS011;11698;47.690;9.132;2023-04-15T10:17:17;2.40;;;1.33;;
23060;SDS011;11698;47.690;9.132;2023-04-15T10:19:47;2.70;;;1.48;;
23060;SDS011;11698;47.690;9.132;2023-04-15T10:22:13;3.13;;;1.40;;
23060;SDS011;11698;47.690;9.132;2023-04-15T10:24:39;4.30;;;1.30;;
23060;SDS011;11698;47.690;9.132;2023-04-15T10:27:05;3.17;;;1.30;;
23060;SDS011;11698;47.690;9.132;2023-04-15T10:29:31;2.50;;;1.50;;
23060;SDS011;11698;47.690;9.132;2023-04-15T10:31:58;1.88;;;1.15;;
23060;SDS011;11698;47.690;9.132;2023-04-15T10:34:24;2.67;;;1.30;;
23060;SDS011;11698;47.690;9.132;2023-04-15T10:36:50;1.67;;;1.25;;
23060;SDS011;11698;47.690;9.132;2023-04-15T10:44:34;5.07;;;1.30;;
23060;SDS011;11698;47.690;9.132;2023-04-15T10:47:03;3.03;;;1.15;;
23060;SDS011;11698;47.690;9.132;2023-04-15T10:49:29;4.35;;;1.20;;
23060;SDS011;11698;47.690;9.132;2023-04-15T10:51:56;2.75;;;1.15;;
23060;SDS011;11698;47.690;9.132;2023-04-15T10:59:37;2.70;;;1.40;;
23060;SDS011;11698;47.690;9.132;2023-04-15T11:02:04;2.35;;;1.00;;
23060;SDS011;11698;47.690;9.132;2023-04-15T11:07:15;2.88;;;1.30;;
23060;SDS011;11698;47.690;9.132;2023-04-15T11:09:57;1.48;;;0.82;;
23060;SDS011;11698;47.690;9.132;2023-04-15T11:12:32;2.30;;;1.30;;
23060;SDS011;11698;47.690;9.132;2023-04-15T11:14:58;4.57;;;1.60;;
23060;SDS011;11698;47.690;9.132;2023-04-15T11:17:27;5.30;;;1.40;;
23060;SDS011;11698;47.690;9.132;2023-04-15T11:19:53;3.45;;;1.70;;
23060;SDS011;11698;47.690;9.132;2023-04-15T11:22:20;2.50;;;1.52;;
23060;SDS011;11698;47.690;9.132;2023-04-15T11:24:46;3.33;;;1.55;;
23060;SDS011;11698;47.690;9.132;2023-04-15T11:27:23;2.83;;;1.65;;
23060;SDS011;11698;47.690;9.132;2023-04-15T11:29:49;4.40;;;1.77;;
23060;SDS011;11698;47.690;9.132;2023-04-15T11:32:16;3.50;;;1.75;;
23060;SDS011;11698;47.690;9.132;2023-04-15T11:34:44;3.33;;;1.60;;
23060;SDS011;11698;47.690;9.132;2023-04-15T11:37:10;3.20;;;1.40;;
23060;SDS011;11698;47.690;9.132;2023-04-15T11:39:37;3.42;;;1.30;;
23060;SDS011;11698;47.690;9.132;2023-04-15T11:42:11;3.15;;;1.55;;
23060;SDS011;11698;47.690;9.132;2023-04-15T11:44:40;1.55;;;0.90;;
23060;SDS011;11698;47.690;9.132;2023-04-15T11:47:22;2.10;;;0.98;;
23060;SDS011;11698;47.690;9.132;2023-04-15T11:49:49;2.33;;;1.13;;
23060;SDS011;11698;47.690;9.132;2023-04-15T11:52:15;2.42;;;1.52;;
23060;SDS011;11698;47.690;9.132;2023-04-15T11:54:41;3.37;;;1.20;;
23060;SDS011;11698;47.690;9.132;2023-04-15T11:57:07;2.63;;;1.02;;
23060;SDS011;11698;47.690;9.132;2023-04-15T11:59:42;3.83;;;1.20;;
23060;SDS011;11698;47.690;9.132;2023-04-15T12:02:12;4.60;;;1.17;;
23060;SDS011;11698;47.690;9.132;2023-04-15T12:04:38;1.90;;;0.95;;
23060;SDS011;11698;47.690;9.132;2023-04-15T12:07:04;2.85;;;1.00;;
23060;SDS011;11698;47.690;9.132;2023-04-15T12:09:31;2.13;;;0.90;;
23060;SDS011;11698;47.690;9.132;2023-04-15T12:12:02;2.28;;;0.88;;
23060;SDS011;11698;47.690;9.132;2023-04-15T12:14:31;2.80;;;1.10;;
23060;SDS011;11698;47.690;9.132;2023-04-15T12:16:58;1.85;;;0.80;;
23060;SDS011;11698;47.690;9.132;2023-04-15T12:19:26;1.48;;;0.80;;
23060;SDS011;11698;47.690;9.132;2023-04-15T12:21:56;1.60;;;0.90;;
23060;SDS011;11698;47.690;9.132;2023-04-15T12:24:23;2.67;;;0.75;;
23060;SDS011;11698;47.690;9.132;2023-04-15T12:26:50;2.53;;;0.90;;
23060;SDS011;11698;47.690;9.132;2023-04-15T12:29:17;1.40;;;0.75;;
23060;SDS011;11698;47.690;9.132;2023-04-15T12:31:50;0.97;;;0.80;;
23060;SDS011;11698;47.690;9.132;2023-04-15T12:34:17;3.10;;;1.13;;
23060;SDS011;11698;47.690;9.132;2023-04-15T12:36:44;2.38;;;1.30;;
23060;SDS011;11698;47.690;9.132;2023-04-15T12:39:10;1.92;;;0.80;;
23060;SDS011;11698;47.690;9.132;2023-04-15T12:41:36;2.00;;;0.68;;
23060;SDS011;11698;47.690;9.132;2023-04-15T12:44:02;1.35;;;0.57;;
23060;SDS011;11698;47.690;9.132;2023-04-15T12:46:28;2.30;;;0.70;;
23060;SDS011;11698;47.690;9.132;2023-04-15T12:48:54;1.73;;;0.80;;
23060;SDS011;11698;47.690;9.132;2023-04-15T12:51:20;2.33;;;0.60;;
23060;SDS011;11698;47.690;9.132;2023-04-15T12:53:46;0.77;;;0.45;;
23060;SDS011;11698;47.690;9.132;2023-04-15T12:56:13;1.40;;;0.60;;
23060;SDS011;11698;47.690;9.132;2023-04-15T12:58:40;1.97;;;0.83;;
23060;SDS011;11698;47.690;9.132;2023-04-15T13:01:07;0.93;;;0.43;;
23060;SDS011;11698;47.690;9.132;2023-04-15T13:03:34;3.38;;;0.77;;
23060;SDS011;11698;47.690;9.132;2023-04-15T13:06:00;2.72;;;0.70;;
23060;SDS011;11698;47.690;9.132;2023-04-15T13:08:28;3.00;;;0.90;;
23060;SDS011;11698;47.690;9.132;2023-04-15T13:10:54;2.95;;;0.90;;
23060;SDS011;11698;47.690;9.132;2023-04-15T13:13:20;1.67;;;0.90;;
23060;SDS011;11698;47.690;9.132;2023-04-15T13:15:46;1.60;;;0.80;;
23060;SDS011;11698;47.690;9.132;2023-04-15T13:18:12;3.30;;;1.20;;
23060;SDS011;11698;47.690;9.132;2023-04-15T13:20:38;2.58;;;1.00;;
23060;SDS011;11698;47.690;9.132;2023-04-15T13:23:05;2.38;;;0.90;;
23060;SDS011;11698;47.690;9.132;2023-04-15T13:25:31;2.17;;;0.93;;
23060;SDS011;11698;47.690;9.132;2023-04-15T13:27:57;3.00;;;1.05;;
23060;SDS011;11698;47.690;9.132;2023-04-15T13:30:25;1.10;;;0.90;;
23060;SDS011;11698;47.690;9.132;2023-04-15T13:32:51;1.88;;;0.80;;
23060;SDS011;11698;47.690;9.132;2023-04-15T13:35:18;1.90;;;0.70;;
23060;SDS011;11698;47.690;9.132;2023-04-15T13:37:44;1.17;;;0.90;;
23060;SDS011;11698;47.690;9.132;2023-04-15T13:40:10;1.98;;;0.90;;
23060;SDS011;11698;47.690;9.132;2023-04-15T13:42:36;3.43;;;0.90;;
23060;SDS011;11698;47.690;9.132;2023-04-15T13:45:02;1.05;;;0.63;;
23060;SDS011;11698;47.690;9.132;2023-04-15T13:47:28;0.70;;;0.22;;
23060;SDS011;11698;47.690;9.132;2023-04-15T13:49:54;1.90;;;0.50;;
23060;SDS011;11698;47.690;9.132;2023-04-15T13:52:21;1.13;;;0.65;;
23060;SDS011;11698;47.690;9.132;2023-04-15T13:54:47;1.70;;;0.80;;
23060;SDS011;11698;47.690;9.132;2023-04-15T13:57:13;2.80;;;0.93;;
23060;SDS011;11698;47.690;9.132;2023-04-15T13:59:39;2.20;;;0.70;;
23060;SDS011;11698;47.690;9.132;2023-04-15T14:02:05;1.42;;;0.60;;
23060;SDS011;11698;47.690;9.132;2023-04-15T14:04:31;2.95;;;0.80;;
23060;SDS011;11698;47.690;9.132;2023-04-15T14:06:57;1.05;;;0.75;;
23060;SDS011;11698;47.690;9.132;2023-04-15T14:09:23;2.83;;;0.75;;
23060;SDS011;11698;47.690;9.132;2023-04-15T14:11:50;2.47;;;0.80;;
23060;SDS011;11698;47.690;9.132;2023-04-15T14:14:16;1.00;;;0.63;;
23060;SDS011;11698;47.690;9.132;2023-04-15T14:16:42;3.50;;;0.70;;
23060;SDS011;11698;47.690;9.132;2023-04-15T14:19:08;2.25;;;0.80;;
23060;SDS011;11698;47.690;9.132;2023-04-15T14:21:34;1.20;;;0.50;;
23060;SDS011;11698;47.690;9.132;2023-04-15T14:24:00;1.80;;;0.50;;
23060;SDS011;11698;47.690;9.132;2023-04-15T14:26:26;2.15;;;0.63;;
23060;SDS011;11698;47.690;9.132;2023-04-15T14:28:52;3.65;;;0.80;;
23060;SDS011;11698;47.690;9.132;2023-04-15T14:31:18;1.52;;;0.80;;
23060;SDS011;11698;47.690;9.132;2023-04-15T14:33:44;3.67;;;0.80;;
23060;SDS011;11698;47.690;9.132;2023-04-15T14:36:10;1.37;;;0.50;;
23060;SDS011;11698;47.690;9.132;2023-04-15T14:38:37;2.15;;;0.80;;
23060;SDS011;11698;47.690;9.132;2023-04-15T14:41:04;0.80;;;0.52;;
23060;SDS011;11698;47.690;9.132;2023-04-15T14:43:30;2.42;;;0.95;;
23060;SDS011;11698;47.690;9.132;2023-04-15T14:45:56;2.53;;;0.90;;
23060;SDS011;11698;47.690;9.132;2023-04-15T14:48:22;1.75;;;0.75;;
23060;SDS011;11698;47.690;9.132;2023-04-15T14:50:48;1.65;;;0.43;;
23060;SDS011;11698;47.690;9.132;2023-04-15T14:53:14;2.20;;;0.70;;
23060;SDS011;11698;47.690;9.132;2023-04-15T14:55:40;1.75;;;0.88;;
23060;SDS011;11698;47.690;9.132;2023-04-15T14:58:07;1.77;;;0.50;;
23060;SDS011;11698;47.690;9.132;2023-04-15T15:00:33;1.10;;;0.47;;